Tiempo atmosférico en la estación meteorológica de Badajoz, Badajoz (175 m.)



Fecha
DESCASC
Temp. máxima en grados centígrados (hora)
DESCASC
Temp. mínima en grados centígrados (hora)
DESCASC
Temp. media en grados centígrados
DESCASC
Racha de viento máxima en m/sg (hora)
DESCASC
Velocidad máxima media en intervalos de 10 minutos(hora)
DESCASC
Precipitaciones diarias en mm
DESCASC
Precipitaciones de 00:00 a 06:00 en mm
DESCASC
Precipitaciones de 06:00 a 12:00 en mm
DESCASC
Precipitaciones de 12:00 a 18:00 en mm
DESCASC
Precipitaciones de 18:00 a 24:00 en mm
DESCASC
22-04-2019 23.8 (16:10) 7.6 (07:50) 15.7 11.94 (22:10) 6.11 (22:10) 0 0 0 0 0
21-04-2019 24 (16:50) 7.7 (07:00) 15.8 10.28 (15:20) 5.83 (15:20) 0 0 0 0 0
20-04-2019 23.5 (17:00) 9.5 (06:30) 16.5 12.78 (13:20) 6.11 (12:50) 0.2 0 0.2 0 0
19-04-2019 21.1 (16:40) 9.8 (06:50) 15.5 13.61 (18:20) 7.78 (18:20) 4.8 0 0.2 0 4.6
18-04-2019 20.7 (17:30) 10.7 (00:00) 15.7 8.89 (19:20) 5.83 (19:20) 1 0.2 0.2 0 0.6
17-04-2019 21.1 (14:20) 8.7 (00:00) 14.9 12.5 (13:20) 7.22 (13:20) 0.4 0 0 0 0.4
16-04-2019 26.6 (17:40) 3.9 (00:00) 15.3 7.78 (17:00) 4.17 (15:40) 0 0 0 0 0
15-04-2019 21.7 (17:40) 11.2 (00:00) 16.5 13.33 (14:10) 7.78 (14:20) 0 0 0 0 0
14-04-2019 25.5 (18:10) 13.5 (00:00) 19.5 4.44 (15:20) 2.22 (10:10) 0 0 0 0 0
13-04-2019 25.2 (17:50) 5.9 (00:00) 15.6 8.33 (20:40) 4.72 (22:30) 0 0 0 0 0
12-04-2019 23.8 (17:20) 4.2 (00:00) 14 6.39 (00:20) 4.17 (00:20) 0 0 0 0 0
11-04-2019 23 (17:50) 4.1 (00:00) 13.5 8.89 (17:10) 5.28 (23:10) 0 0 0 0 0
10-04-2019 -- (--) -- (--) -- 11.39 (13:30) 7.5 (18:30) 0 0 0 0 0
09-04-2019 18.8 (16:20) 7.9 (00:00) 13.3 13.89 (16:30) 6.94 (14:10) 1.4 0 1.2 0.2 0
08-04-2019 19.5 (15:50) 10.5 (00:00) 15 16.94 (18:30) 8.33 (18:40) 2.2 2.2 0 0 0
07-04-2019 14.6 (18:10) 8.4 (00:00) 11.5 8.06 (16:00) 4.72 (16:50) 5.6 4.6 0 0.2 0.8
06-04-2019 15.3 (13:20) 7 (00:00) 11.2 16.39 (14:20) 8.61 (14:20) 2.2 0.4 0 0.8 1
05-04-2019 14.2 (16:30) 5.4 (00:00) 9.8 15.28 (09:10) 8.61 (18:10) 9.2 4.6 1.6 0.2 2.8
04-04-2019 18.9 (15:40) 1.1 (00:00) 10 12.22 (21:50) 6.67 (22:00) 0.4 0 0 0 0.4
03-04-2019 20.9 (16:10) 6.5 (00:00) 13.7 11.11 (22:40) 6.11 (21:00) 0 0 0 0 0
02-04-2019 23.5 (16:30) 6.2 (00:00) 14.8 7.5 (17:30) 4.17 (17:30) 0 0 0 0 0
01-04-2019 -- (--) -- (--) -- 11.39 (16:40) 7.22 (16:50) 1 0.8 0.2 0 0
31-03-2019 -- (--) -- (--) -- 11.11 (19:50) 5.83 (20:00) 0.6 0 0 0 0.6
30-03-2019 -- (--) -- (--) -- 9.17 (22:20) 4.72 (22:20) 0 0 0 0 0
29-03-2019 -- (--) -- (--) -- 7.5 (12:00) 3.89 (12:20) 0 0 0 0 0
28-03-2019 -- (--) -- (--) -- 9.72 (14:20) 5 (14:20) 0 0 0 0 0
27-03-2019 -- (--) -- (--) -- 14.17 (14:50) 5.83 (15:00) 0 0 0 0 0
26-03-2019 -- (--) -- (--) -- 10.83 (11:30) 6.11 (11:30) 0 0 0 0 0
25-03-2019 25.5 (16:30) 4.6 (00:00) 15 11.67 (13:30) 5.28 (13:20) 0 0 0 0 0

Gráficas

Temp. máximas Temp. mínimas Temp. medias Precipitaciones Rachas de viento máximas Velocidades máximas media en intervalos de 10 minutos

Datos horarios

Fecha y hora oficial Temperatura (ºC) Velocidad del viento (km/h) Dirección del viento Racha (km/h) Dirección de racha Precipitación (mm) Presión (hPa) Tendencia (hPa) Humedad (%)
2019-04-23 23:00:00 8.3 5 Sudoeste 16 Sudoeste 0 -- -- 88
2019-04-23 22:00:00 8.7 6 Sudoeste 17 Sudoeste 0 -- -- 85
2019-04-23 21:00:00 9.8 10 Sudoeste 30 Sudoeste 0 -- -- 76
2019-04-23 20:00:00 10.9 10 Sudoeste 35 Oeste 0 -- -- 68
2019-04-23 19:00:00 11.2 21 Oeste 42 Oeste 0 -- -- 64
2019-04-23 18:00:00 12.9 17 Oeste 41 Noroeste 0 -- -- 56
2019-04-23 17:00:00 10.4 18 Noroeste 56 Oeste 0 -- -- 77
2019-04-23 16:00:00 15 15 Oeste 35 Noroeste 0 -- -- 58
2019-04-23 15:00:00 13.4 22 Noroeste 40 Oeste 0 -- -- 64
2019-04-23 14:00:00 12.1 22 Oeste 44 Oeste 0 -- -- 64
2019-04-23 13:00:00 13.3 19 Oeste 41 Oeste 0 -- -- 63
2019-04-23 12:00:00 12.2 20 Oeste 48 Oeste 0 -- -- 67
2019-04-23 11:00:00 10.8 19 Oeste 38 Oeste 0 -- -- 74
2019-04-23 10:00:00 9.8 13 Sudoeste 26 Sudoeste 0 -- -- 82
2019-04-23 09:00:00 8.6 8 Sudoeste 17 Sudoeste 0 -- -- 90
2019-04-23 08:00:00 7.8 5 Sudoeste 14 Sudoeste 0 -- -- 93
2019-04-23 07:00:00 8.2 6 Sudoeste 14 Sudoeste 0 -- -- 93
2019-04-23 06:00:00 9.2 8 Oeste 23 Oeste 0 -- -- 90
2019-04-23 05:00:00 9.9 9 Oeste 20 Oeste 0.2 -- -- 90
2019-04-23 04:00:00 10.3 6 Sudoeste 26 Oeste 1.2 -- -- 94
2019-04-23 03:00:00 10.6 7 Oeste 29 Oeste 0.4 -- -- 92
2019-04-23 02:00:00 11.2 17 Noroeste 43 Oeste 2.2 -- -- 89
2019-04-23 01:00:00 14.2 14 Sur 38 Sudoeste 0 -- -- 77
2019-04-23 00:00:00 14.4 17 Sudoeste 36 Sudoeste 0 -- -- 73
2019-04-22 23:00:00 15 15 Sudoeste 43 Sudoeste 0 -- -- 74
2019-04-22 22:00:00 16.3 21 Sudoeste 39 Sudoeste 0 -- -- 69
2019-04-22 21:00:00 18.3 20 Sudoeste 36 Sudoeste 0 -- -- 53
2019-04-22 20:00:00 20.2 15 Oeste 30 Oeste 0 -- -- 45
2019-04-22 19:00:00 20.7 15 Oeste 28 Oeste 0 -- -- 48
2019-04-22 18:00:00 22.2 17 Oeste 40 Oeste 0 -- -- 36
2019-04-22 17:00:00 23 19 Oeste 38 Oeste 0 -- -- 36
2019-04-22 16:00:00 23.6 18 Noroeste 36 Oeste 0 -- -- 39
2019-04-22 15:00:00 23.1 16 Oeste 30 Oeste 0 -- -- 41
2019-04-22 14:00:00 21.3 15 Oeste 26 Oeste 0 -- -- 54
2019-04-22 13:00:00 20.8 6 Sudoeste 18 Sudoeste 0 -- -- 52
2019-04-22 12:00:00 -- 5 Oeste 15 Sur 0 -- -- --
2019-04-22 11:00:00 16.4 9 Sudoeste 17 Sudoeste 0 -- -- 66
2019-04-22 10:00:00 13.8 4 Sur 8 Sur 0 -- -- 77
2019-04-22 09:00:00 9.9 0 Calma 3 Sur 0 -- -- 93
2019-04-22 08:00:00 7.6 2 Norte 4 Noroeste 0 -- -- 92
2019-04-22 07:00:00 8.5 0 Calma 3 Norte 0 -- -- 90
2019-04-22 06:00:00 10.3 0 Calma 6 Sudeste 0 -- -- 87
2019-04-22 05:00:00 11.4 2 Sudoeste 9 Sudoeste 0 -- -- 84
2019-04-22 04:00:00 11.3 2 Sur 6 Sur 0 -- -- 85
2019-04-22 03:00:00 11.7 4 Noroeste 5 Noroeste 0 -- -- 82
2019-04-22 02:00:00 11.4 4 Nordeste 6 Norte 0 -- -- 85
2019-04-22 01:00:00 10.6 3 Norte 6 Norte 0 -- -- 82
2019-04-22 00:00:00 12.2 3 Noroeste 4 Norte 0 -- -- 76
2019-04-21 23:00:00 17.2 0 Calma 14 Este 0 -- -- 59
2019-04-21 22:00:00 18.5 5 Este 22 Este 0 -- -- 47
2019-04-21 21:00:00 19.8 7 Este 17 Nordeste 0 -- -- 44
2019-04-21 20:00:00 20.7 9 Nordeste 25 Nordeste 0 -- -- 41
2019-04-21 19:00:00 21.1 12 Nordeste 27 Nordeste 0 -- -- 41
2019-04-21 18:00:00 21.5 11 Nordeste 26 Nordeste 0 -- -- 39
2019-04-21 17:00:00 22.7 14 Norte 33 Norte 0 -- -- 37
2019-04-21 16:00:00 22.7 16 Norte 37 Norte 0 -- -- 39
2019-04-21 15:00:00 22.3 13 Nordeste 34 Nordeste 0 -- -- 39
2019-04-21 14:00:00 22.7 18 Norte 31 Nordeste 0 -- -- 40
2019-04-21 13:00:00 20.8 6 Este 17 Norte 0 -- -- 42
2019-04-21 12:00:00 19.1 4 Norte 14 Nordeste 0 -- -- 50
2019-04-21 11:00:00 16.6 6 Nordeste 17 Norte 0 -- -- 60
2019-04-21 10:00:00 13.7 10 Nordeste 21 Norte 0 -- -- 70
2019-04-21 09:00:00 10.9 11 Norte 17 Norte 0 -- -- 83
2019-04-21 08:00:00 8.2 12 Nordeste 17 Norte 0 -- -- 93
2019-04-21 07:00:00 7.7 8 Norte 13 Norte 0 -- -- 89
2019-04-21 06:00:00 9.3 6 Norte 13 Nordeste 0 -- -- 85
2019-04-21 05:00:00 10 8 Nordeste 12 Norte 0 -- -- 84
2019-04-21 04:00:00 9.4 9 Nordeste 11 Nordeste 0 -- -- 89
2019-04-21 03:00:00 10.4 6 Nordeste 11 Norte 0 -- -- 87
2019-04-21 02:00:00 11.6 6 Nordeste 12 Este 0 -- -- 80
2019-04-21 01:00:00 13 6 Este 16 Este 0 -- -- 72
2019-04-21 00:00:00 15.1 9 Este 23 Sudeste 0 -- -- 59
2019-04-20 23:00:00 15.8 8 Este 32 Este 0 -- -- 56
2019-04-20 22:00:00 16.9 13 Este 38 Este 0 -- -- 56
2019-04-20 21:00:00 18.6 16 Este 36 Este 0 -- -- 54
2019-04-20 20:00:00 20.4 13 Sudeste 33 Sudeste 0 -- -- 51
2019-04-20 19:00:00 22.6 10 Este 25 Este 0 -- -- 44
2019-04-20 18:00:00 23.5 11 Este 28 Este 0 -- -- 42
2019-04-20 17:00:00 23.5 12 Este 35 Este 0 -- -- 44
2019-04-20 16:00:00 22.5 15 Este 35 Este 0 -- -- 43
2019-04-20 15:00:00 21.6 17 Este 36 Este 0 -- -- 44
2019-04-20 14:00:00 21.4 16 Este 46 Este 0 -- -- 43
2019-04-20 13:00:00 21.1 18 Nordeste 35 Nordeste 0 -- -- 45
2019-04-20 12:00:00 18.1 21 Nordeste 31 Nordeste 0 -- -- 67
2019-04-20 11:00:00 15.3 13 Nordeste 23 Nordeste 0.2 -- -- 80
2019-04-20 10:00:00 12.8 9 Nordeste 18 Nordeste 0 -- -- 91
2019-04-20 09:00:00 11.1 3 Nordeste 8 Norte 0 -- -- 96
2019-04-20 08:00:00 10.4 7 Norte 17 Norte 0 -- -- 97
2019-04-20 07:00:00 9.7 9 Norte 12 Norte 0 -- -- 96
2019-04-20 06:00:00 10 7 Nordeste 14 Nordeste 0 -- -- 94
2019-04-20 05:00:00 10.9 7 Nordeste 15 Norte 0 -- -- 92
2019-04-20 04:00:00 11 9 Nordeste 21 Nordeste 0 -- -- 91
2019-04-20 03:00:00 11.2 9 Nordeste 20 Nordeste 0 -- -- 91
2019-04-20 02:00:00 11.7 13 Nordeste 20 Nordeste 0 -- -- 91
2019-04-20 01:00:00 12.5 12 Nordeste 17 Nordeste 0 -- -- 92
2019-04-20 00:00:00 13 8 Nordeste 17 Nordeste 0 -- -- 88
2019-04-19 23:00:00 13.6 6 Este 20 Nordeste 0 -- -- 85
2019-04-19 22:00:00 13.2 4 Este 37 Este 1.2 -- -- 89
2019-04-19 21:00:00 15.6 12 Este 30 Este 0 -- -- 73
2019-04-19 20:00:00 15.2 8 Nordeste 15 Nordeste 0 -- -- 83
2019-04-19 19:00:00 13.7 8 Nordeste 49 Nordeste 3.4 -- -- 86
2019-04-19 18:00:00 20.9 9 Norte 18 Noroeste 0 -- -- 48
2019-04-19 17:00:00 21.1 4 Nordeste 16 Nordeste 0 -- -- 44
2019-04-19 16:00:00 20.4 8 Este 16 Este 0 -- -- 49
2019-04-19 15:00:00 19.3 5 Este 16 Nordeste 0 -- -- 58
2019-04-19 14:00:00 16.3 6 Nordeste 13 Norte 0 -- -- 73
2019-04-19 13:00:00 15.2 6 Norte 13 Norte 0 -- -- 80
2019-04-19 12:00:00 13.5 5 Nordeste 11 Norte 0 -- -- 86
2019-04-19 11:00:00 12.5 5 Oeste 15 Sudoeste 0 -- -- 89
2019-04-19 10:00:00 11.1 7 Oeste 13 Oeste 0 -- -- 95
2019-04-19 09:00:00 10.6 4 Sudoeste 9 Sudoeste 0.2 -- -- 94
2019-04-19 08:00:00 10.3 2 Sudoeste 8 Sudoeste 0 -- -- 94
2019-04-19 07:00:00 10 3 Sudoeste 7 Sudoeste 0 -- -- 94
2019-04-19 06:00:00 10.8 4 Sudoeste 8 Sudoeste 0 -- -- 91
2019-04-19 05:00:00 11.2 3 Sudoeste 9 Sudoeste 0 -- -- 89
2019-04-19 04:00:00 11.2 5 Sudoeste 13 Sudoeste 0 -- -- 89
2019-04-19 03:00:00 11.8 7 Sudoeste 12 Sudoeste 0 -- -- 87
2019-04-19 02:00:00 12.1 5 Sudoeste 9 Sudoeste 0 -- -- 88
2019-04-19 01:00:00 12.1 3 Sur 8 Sur 0 -- -- 87
2019-04-19 00:00:00 12.5 4 Sur 9 Sudeste 0.4 -- -- 87
2019-04-18 23:00:00 13.1 5 Sur 10 Sudoeste 0 -- -- 77
2019-04-18 22:00:00 12.7 7 Norte 30 Noroeste 0 -- -- 83
2019-04-18 21:00:00 13.4 15 Noroeste 31 Norte 0.2 -- -- 78
2019-04-18 20:00:00 18 17 Noroeste 32 Noroeste 0 -- -- 59
2019-04-18 19:00:00 20.7 17 Noroeste 30 Oeste 0 -- -- 47
2019-04-18 18:00:00 20.2 9 Oeste 24 Oeste 0 -- -- 47
2019-04-18 17:00:00 19.1 10 Noroeste 17 Noroeste 0 -- -- 54
2019-04-18 16:00:00 18.6 5 Norte 12 Norte 0 -- -- 57
2019-04-18 15:00:00 17.3 4 Norte 13 Sudeste 0 -- -- 61
2019-04-18 14:00:00 16.8 7 Sur 18 Sudoeste 0 -- -- 63
2019-04-18 13:00:00 16.1 6 Sudoeste 16 Oeste 0 -- -- 66
2019-04-18 12:00:00 15.9 6 Oeste 13 Noroeste 0 -- -- 69
2019-04-18 11:00:00 14.2 8 Noroeste 15 Oeste 0 -- -- 81
2019-04-18 10:00:00 12.6 6 Oeste 13 Sudoeste 0 -- -- 90
2019-04-18 09:00:00 11.8 4 Sudoeste 8 Sudoeste 0 -- -- 93
2019-04-18 08:00:00 10.7 0 Calma 5 Sur 0 -- -- 95
2019-04-18 07:00:00 11 0 Calma 4 Sudoeste 0.2 -- -- 96
2019-04-18 06:00:00 11 0 Calma 4 Norte 0.2 -- -- 93
2019-04-18 05:00:00 11.1 0 Calma 8 Este 0 -- -- 91
2019-04-18 04:00:00 11.2 4 Sudeste 12 Este 0 -- -- 88
2019-04-18 03:00:00 11.9 5 Sudeste 11 Sur 0 -- -- 87
2019-04-18 02:00:00 11.8 4 Sur 11 Sur 0 -- -- 89
2019-04-18 01:00:00 11.4 6 Sur 15 Sur 0 -- -- 90
2019-04-18 00:00:00 12 6 Sudoeste 21 Sur 0 -- -- 89
2019-04-17 23:00:00 12.4 9 Sur 31 Sur 0 -- -- 87
2019-04-17 22:00:00 12.9 15 Sur 29 Sur 0 -- -- 82
2019-04-17 21:00:00 13.3 14 Sur 26 Sur 0 -- -- 81
2019-04-17 20:00:00 13.9 12 Sudoeste 22 Sudoeste 0.4 -- -- 88
2019-04-17 19:00:00 14.7 13 Sur 27 Sur 0 -- -- 81
2019-04-17 18:00:00 15.8 13 Sur 27 Sudoeste 0 -- -- 71
2019-04-17 17:00:00 14.5 13 Sudoeste 35 Sudoeste 0 -- -- 79
2019-04-17 16:00:00 15.4 19 Sudoeste 43 Sudoeste 0 -- -- 72
2019-04-17 15:00:00 18.6 22 Sudoeste 44 Sur 0 -- -- 65
2019-04-17 14:00:00 21 21 Sur 45 Sudeste -- -- -- 54
2019-04-17 13:00:00 19 23 Sur 44 Sur 0 -- -- 60
2019-04-17 12:00:00 18 18 Sudeste 32 Sudeste 0 -- -- 63
2019-04-17 11:00:00 16.2 12 Sudeste 23 Sudeste 0 -- -- 62
2019-04-17 10:00:00 14.3 12 Sudeste 19 Este 0 -- -- 69
2019-04-17 09:00:00 12.3 4 Este 9 Este 0 -- -- 77
2019-04-17 08:00:00 10.4 2 Nordeste 5 Norte 0 -- -- 91
2019-04-17 07:00:00 8.9 2 Noroeste 4 Noroeste 0 -- -- 88
2019-04-17 06:00:00 9.5 0 Calma 6 Sur 0 -- -- 80
2019-04-17 05:00:00 11.7 6 Sur 11 Sudoeste 0 -- -- 84
2019-04-17 04:00:00 12.4 6 Sudoeste 12 Sudoeste 0 -- -- 80
2019-04-17 03:00:00 13.9 6 Sur 10 Sur 0 -- -- 62
2019-04-17 02:00:00 15.3 5 Sudoeste 14 Sudoeste 0 -- -- 54
2019-04-17 01:00:00 16.2 9 Sudoeste 21 Sur 0 -- -- 48
2019-04-17 00:00:00 16.1 4 Sur 13 Sudoeste 0 -- -- 51
2019-04-16 23:00:00 17.5 6 Sur 12 Sudoeste 0 -- -- 46
2019-04-16 22:00:00 19.6 6 Sur 13 Sudoeste 0 -- -- 42
2019-04-16 21:00:00 21.4 8 Sudoeste 22 Sudoeste 0 -- -- 40
2019-04-16 20:00:00 23.6 10 Sudoeste 25 Sur 0 -- -- 35
2019-04-16 19:00:00 25.4 9 Sudoeste 21 Sur 0 -- -- 32
2019-04-16 18:00:00 26.3 13 Sur 23 Sur 0 -- -- 30
2019-04-16 17:00:00 25.8 13 Sur 28 Sudeste 0 -- -- 31
2019-04-16 16:00:00 25.2 13 Sur 28 Sur 0 -- -- 30
2019-04-16 15:00:00 24.2 8 Sudeste 21 Sur 0 -- -- 34
2019-04-16 14:00:00 22.7 13 Sudeste 24 Sudeste 0 -- -- 40
2019-04-16 13:00:00 20.5 9 Nordeste 20 Norte 0 -- -- 54
2019-04-16 12:00:00 17.7 4 Este 10 Este 0 -- -- 62
2019-04-16 11:00:00 14.4 3 Este 6 Nordeste 0 -- -- 73
2019-04-16 10:00:00 10.7 0 Calma 8 Nordeste 0 -- -- 92
2019-04-16 09:00:00 6.6 2 Norte 5 Norte 0 -- -- 99
2019-04-16 08:00:00 3.9 3 Norte 5 Norte 0 -- -- 96
2019-04-16 07:00:00 4.7 2 Nordeste 4 Oeste 0 -- -- 95
2019-04-16 06:00:00 5.2 3 Oeste 4 Sudoeste 0 -- -- 91
2019-04-16 05:00:00 6.7 2 Sur 5 Sur 0 -- -- 89
2019-04-16 04:00:00 8 4 Noroeste 8 Oeste 0 -- -- 86
2019-04-16 03:00:00 9.8 3 Sudoeste 8 Oeste 0 -- -- 89
2019-04-16 02:00:00 9.4 0 Calma 10 Noroeste 0 -- -- 89
2019-04-16 01:00:00 10.7 5 Noroeste 10 Noroeste 0 -- -- 83
2019-04-16 00:00:00 12.6 4 Noroeste 13 Noroeste 0 -- -- 79
2019-04-15 23:00:00 12.9 4 Norte 17 Oeste 0 -- -- 76
2019-04-15 22:00:00 16.1 12 Noroeste 19 Oeste 0 -- -- 62
2019-04-15 21:00:00 18 10 Oeste 27 Noroeste 0 -- -- 55
2019-04-15 20:00:00 19.6 14 Oeste 31 Noroeste 0 -- -- 52
2019-04-15 19:00:00 21.4 21 Noroeste 37 Noroeste 0 -- -- 48
2019-04-15 18:00:00 21 15 Oeste 36 Sudoeste 0 -- -- 46
2019-04-15 17:00:00 21.1 15 Oeste 35 Noroeste 0 -- -- 53
2019-04-15 16:00:00 20.2 19 Oeste 37 Oeste 0 -- -- 55
2019-04-15 15:00:00 17.6 18 Oeste 48 Noroeste 0 -- -- 65
2019-04-15 14:00:00 21 14 Oeste 35 Oeste 0 -- -- 48
2019-04-15 13:00:00 20.6 15 Oeste 30 Oeste 0 -- -- 52
2019-04-15 12:00:00 19.4 11 Oeste 27 Noroeste 0 -- -- 56
2019-04-15 11:00:00 17.8 15 Oeste 24 Noroeste 0 -- -- 68
2019-04-15 10:00:00 15.5 9 Sudoeste 16 Sudoeste 0 -- -- 85
2019-04-15 09:00:00 13 8 Sudoeste 14 Sudoeste 0 -- -- 95
2019-04-15 08:00:00 12.5 6 Sudoeste 12 Sudoeste 0 -- -- 96
2019-04-15 07:00:00 11.2 3 Sudoeste 5 Sudoeste 0 -- -- 94
2019-04-15 06:00:00 11.4 2 Oeste 5 Oeste 0 -- -- 93
2019-04-15 05:00:00 11.6 0 Calma 5 Noroeste 0 -- -- 93
2019-04-15 04:00:00 12.5 3 Norte 10 Noroeste 0 -- -- 94
2019-04-15 03:00:00 12.3 4 Noroeste 8 Noroeste 0 -- -- 91
2019-04-15 02:00:00 13.4 5 Sudoeste 6 Sudoeste 0 -- -- 91
2019-04-15 01:00:00 14.3 0 Calma 6 Oeste 0 -- -- 89
2019-04-15 00:00:00 15.7 3 Oeste 4 Oeste 0 -- -- 83
2019-04-14 23:00:00 16.6 0 Calma 4 Sur 0 -- -- 79
2019-04-14 22:00:00 19.5 0 Calma 6 Sudoeste 0 -- -- 70
2019-04-14 21:00:00 22.3 4 Oeste 10 Oeste 0 -- -- 59
2019-04-14 20:00:00 23.9 5 Sudoeste 15 Oeste 0 -- -- 53
2019-04-14 19:00:00 24.7 4 Oeste 15 Sur 0 -- -- 52
2019-04-14 18:00:00 25 4 Norte 11 Oeste 0 -- -- 50
2019-04-14 17:00:00 24.7 5 Sudoeste 13 Sudoeste 0 -- -- 51
2019-04-14 16:00:00 24.9 3 Este 16 Sur 0 -- -- 51
2019-04-14 15:00:00 25.3 5 Sudoeste 14 Sudeste 0 -- -- 49
2019-04-14 14:00:00 24 6 Sudeste 14 Sudeste 0 -- -- 53
2019-04-14 13:00:00 21.9 5 Este 14 Sur 0 -- -- 61
2019-04-14 12:00:00 20.4 4 Sur 15 Oeste 0 -- -- 67
2019-04-14 11:00:00 18.5 5 Sudeste 13 Sudoeste 0 -- -- 74
2019-04-14 10:00:00 15.9 8 Sur 14 Sur 0 -- -- 84
2019-04-14 09:00:00 14.6 4 Sur 8 Sur 0 -- -- 91
2019-04-14 08:00:00 14.2 4 Sur 10 Sudoeste 0 -- -- 91
2019-04-14 07:00:00 13.9 4 Sudoeste 10 Sudoeste 0 -- -- 91
2019-04-14 06:00:00 14 6 Sudoeste 11 Sudoeste 0 -- -- 89
2019-04-14 05:00:00 13.7 3 Sudoeste 6 Sudoeste 0 -- -- 91
2019-04-14 04:00:00 13.9 3 Sudoeste 7 Sur 0 -- -- 89
2019-04-14 03:00:00 13.8 4 Sudoeste 7 Oeste 0 -- -- 89
2019-04-14 02:00:00 14.7 4 Oeste 11 Oeste 0 -- -- 86
2019-04-14 01:00:00 15.2 3 Sudoeste 12 Oeste 0 -- -- 83
2019-04-14 00:00:00 15.9 8 Noroeste 19 Noroeste 0 -- -- 81
2019-04-13 23:00:00 16.8 12 Noroeste 27 Oeste 0 -- -- 76
2019-04-13 22:00:00 18 14 Noroeste 24 Noroeste 0 -- -- 70
2019-04-13 21:00:00 19.7 14 Noroeste 30 Oeste 0 -- -- 61
2019-04-13 20:00:00 20.9 12 Noroeste 28 Noroeste 0 -- -- 52
2019-04-13 19:00:00 22.5 14 Noroeste 27 Oeste 0 -- -- 43
2019-04-13 18:00:00 24.4 13 Oeste 27 Oeste 0 -- -- 34
2019-04-13 17:00:00 23.7 9 Oeste 22 Sur 0 -- -- 34
2019-04-13 16:00:00 24.3 11 Sudoeste 23 Oeste 0 -- -- 32
2019-04-13 15:00:00 23.9 6 Noroeste 22 Sur 0 -- -- 32
2019-04-13 14:00:00 21.9 9 Sudoeste 19 Sudoeste 0 -- -- 30
2019-04-13 13:00:00 20.3 8 Sudoeste 15 Oeste 0 -- -- 38
2019-04-13 12:00:00 18.1 5 Sudoeste 16 Sudoeste 0 -- -- 50
2019-04-13 11:00:00 15.3 9 Sudoeste 15 Sudoeste 0 -- -- 68
2019-04-13 10:00:00 11.7 6 Sudoeste 12 Sudoeste 0 -- -- 85
2019-04-13 09:00:00 8.8 3 Sur 7 Sudeste 0 -- -- 94
2019-04-13 08:00:00 6.5 2 Sur 5 Sudoeste 0 -- -- 95
2019-04-13 07:00:00 6.3 3 Sur 5 Sur 0 -- -- 90
2019-04-13 06:00:00 7.2 3 Sudoeste 6 Sudoeste 0 -- -- 92
2019-04-13 05:00:00 7.5 2 Sur 7 Sudeste 0 -- -- 88
2019-04-13 04:00:00 8.7 0 Calma 6 Noroeste 0 -- -- 86
2019-04-13 03:00:00 10.5 2 Este 6 Oeste 0 -- -- 84
2019-04-13 02:00:00 9.1 4 Noroeste 12 Noroeste 0 -- -- 84
2019-04-13 01:00:00 8.4 3 Noroeste 8 Oeste 0 -- -- 82
2019-04-13 00:00:00 9.9 0 Calma 4 Oeste 0 -- -- 76
2019-04-12 23:00:00 10.9 0 Calma 10 Oeste 0 -- -- 71
2019-04-12 22:00:00 14.1 5 Oeste 13 Oeste 0 -- -- 61
2019-04-12 21:00:00 19 7 Oeste 13 Oeste 0 -- -- 43
2019-04-12 20:00:00 21.2 6 Oeste 18 Noroeste 0 -- -- 33
2019-04-12 19:00:00 23.1 4 Noroeste 15 Nordeste 0 -- -- 27
2019-04-12 18:00:00 23.8 6 Norte 15 Oeste 0 -- -- 30
2019-04-12 17:00:00 23.6 5 Noroeste 14 Oeste 0 -- -- 31
2019-04-12 16:00:00 23 7 Nordeste 22 Nordeste 0 -- -- 31
2019-04-12 15:00:00 23.2 6 Norte 17 Norte 0 -- -- 31
2019-04-12 14:00:00 21.1 5 Norte 17 Sudeste 0 -- -- 37
2019-04-12 13:00:00 18.9 6 Este 16 Este 0 -- -- 47
2019-04-12 12:00:00 17.1 8 Nordeste 17 Este 0 -- -- 47
2019-04-12 11:00:00 14.5 6 Nordeste 15 Nordeste 0 -- -- 56
2019-04-12 10:00:00 10.6 2 Nordeste 4 Norte 0 -- -- 84
2019-04-12 09:00:00 5.7 0 Calma 3 Oeste 0 -- -- 98
2019-04-12 08:00:00 4.6 0 Calma 8 Noroeste 0 -- -- 95
2019-04-12 07:00:00 4.8 5 Noroeste 8 Norte 0 -- -- 94
2019-04-12 06:00:00 5.5 0 Calma 5 Oeste 0 -- -- 91
2019-04-12 05:00:00 7.2 5 Noroeste 9 Noroeste 0 -- -- 88
2019-04-12 04:00:00 8 3 Oeste 8 Noroeste 0 -- -- 87
2019-04-12 03:00:00 8.2 2 Noroeste 14 Noroeste 0 -- -- 89
2019-04-12 02:00:00 8.9 6 Norte 18 Noroeste 0 -- -- 85
2019-04-12 01:00:00 11.7 12 Noroeste 23 Noroeste 0 -- -- 76
2019-04-12 00:00:00 13.2 16 Noroeste 31 Oeste 0 -- -- 71
2019-04-11 23:00:00 14.3 16 Noroeste 24 Noroeste 0 -- -- 67
2019-04-11 22:00:00 15.4 8 Noroeste 18 Noroeste 0 -- -- 58
2019-04-11 21:00:00 17.7 9 Noroeste 16 Noroeste 0 -- -- 50
2019-04-11 20:00:00 20.1 11 Noroeste 24 Noroeste 0 -- -- 40
2019-04-11 19:00:00 21 12 Noroeste 28 Noroeste 0 -- -- 38
2019-04-11 18:00:00 22.1 14 Oeste 32 Oeste 0 -- -- 35
2019-04-11 17:00:00 21.9 12 Oeste 27 Noroeste 0 -- -- 38
2019-04-11 16:00:00 20.6 11 Noroeste 21 Oeste 0 -- -- 43
2019-04-11 15:00:00 21.3 10 Noroeste 24 Noroeste 0 -- -- 38
2019-04-11 14:00:00 20.9 5 Noroeste 19 Norte 0 -- -- 47
2019-04-11 13:00:00 18.7 5 Noroeste 16 Noroeste 0 -- -- 49
2019-04-11 12:00:00 16.9 6 Norte 15 Norte 0 -- -- 58
2019-04-11 11:00:00 13.9 6 Noroeste 13 Noroeste 0 -- -- 67
2019-04-11 10:00:00 10.2 6 Noroeste 12 Noroeste 0 -- -- 85
2019-04-11 09:00:00 5.8 3 Oeste 4 Noroeste 0 -- -- 98
2019-04-11 08:00:00 4.3 0 Calma 5 Sur 0 -- -- 95
2019-04-11 07:00:00 5.5 3 Sudoeste 7 Sur 0 -- -- 92
2019-04-11 06:00:00 6.8 4 Sudoeste 6 Sudoeste 0 -- -- 93
2019-04-11 05:00:00 7.7 3 Sur 13 Oeste 0 -- -- 89
2019-04-11 04:00:00 8.7 5 Oeste 14 Oeste 0 -- -- 85
2019-04-11 03:00:00 8.6 4 Oeste 11 Oeste 0 -- -- 86
2019-04-11 02:00:00 9.2 2 Norte 18 Noroeste 0 -- -- 84
2019-04-11 01:00:00 10 9 Noroeste 20 Noroeste 0 -- -- 81
2019-04-11 00:00:00 11.3 11 Noroeste 27 Noroeste 0 -- -- 76
2019-04-10 23:00:00 12.4 15 Noroeste 33 Noroeste 0 -- -- 70
2019-04-10 22:00:00 13.5 19 Noroeste 33 Noroeste 0 -- -- 64
2019-04-10 21:00:00 14.8 15 Noroeste 36 Oeste 0 -- -- 60
2019-04-10 20:00:00 -- 21 Noroeste 39 Noroeste 0 -- -- 54
2019-04-10 19:00:00 -- 24 Noroeste 40 Oeste 0 -- -- 51
2019-04-10 18:00:00 -- 19 Noroeste 39 Oeste 0 -- -- 45
2019-04-10 17:00:00 -- 21 Noroeste 37 Noroeste 0 -- -- 42
2019-04-10 16:00:00 -- 20 Noroeste 38 Noroeste 0 -- -- 46
2019-04-10 15:00:00 -- 21 Noroeste 39 Noroeste 0 -- -- 47
2019-04-10 14:00:00 17.9 19 Noroeste 41 Noroeste -- -- -- 49
2019-04-10 13:00:00 16.3 22 Noroeste 39 Noroeste 0 -- -- 55
2019-04-10 12:00:00 15.8 20 Noroeste 37 Noroeste 0 -- -- 63
2019-04-10 11:00:00 13.5 18 Noroeste 31 Noroeste 0 -- -- 75
2019-04-10 10:00:00 10.8 17 Noroeste 28 Oeste 0 -- -- 87
2019-04-10 09:00:00 8.2 14 Oeste 23 Oeste 0 -- -- 98
2019-04-10 08:00:00 5.5 5 Norte 11 Noroeste 0 -- -- 93
2019-04-10 07:00:00 7.6 4 Sudoeste 8 Sudoeste 0 -- -- 95
2019-04-10 06:00:00 8 3 Sudoeste 6 Sur 0 -- -- 95
2019-04-10 05:00:00 8.4 3 Sudoeste 10 Oeste 0 -- -- 92
2019-04-10 04:00:00 9 3 Oeste 14 Oeste 0 -- -- 89
2019-04-10 03:00:00 9.8 11 Oeste 21 Oeste 0 -- -- 87
2019-04-10 02:00:00 9.5 8 Oeste 19 Oeste 0 -- -- 88
2019-04-10 01:00:00 9.8 5 Oeste 10 Oeste 0 -- -- 85
2019-04-10 00:00:00 10.4 8 Oeste 15 Oeste 0 -- -- 82
2019-04-09 23:00:00 10.9 7 Oeste 21 Oeste 0 -- -- 78
2019-04-09 22:00:00 12.1 8 Oeste 24 Oeste 0 -- -- 70
2019-04-09 21:00:00 13.4 8 Oeste 33 Oeste 0 -- -- 68
2019-04-09 20:00:00 15.3 19 Oeste 41 Noroeste 0 -- -- 61
2019-04-09 19:00:00 17.2 24 Noroeste 44 Noroeste 0 -- -- 52
2019-04-09 18:00:00 17 21 Noroeste 37 Noroeste 0 -- -- 58
2019-04-09 17:00:00 16.4 15 Noroeste 50 Noroeste 0.2 -- -- 66
2019-04-09 16:00:00 17.4 16 Noroeste 45 Oeste 0 -- -- 62
2019-04-09 15:00:00 17.2 21 Oeste 42 Oeste 0 -- -- 55
2019-04-09 14:00:00 15.9 24 Oeste 43 Oeste 0 -- -- 59
2019-04-09 13:00:00 15.6 21 Oeste 37 Oeste 0 -- -- 61
2019-04-09 12:00:00 14.1 17 Oeste 31 Oeste 0 -- -- 73
2019-04-09 11:00:00 12.5 16 Sudoeste 30 Sudoeste 0 -- -- 87
2019-04-09 10:00:00 9.8 10 Sudoeste 36 Oeste 1.2 -- -- 97
2019-04-09 09:00:00 8.9 11 Sudoeste 20 Sudoeste 0 -- -- 98
2019-04-09 08:00:00 8.5 7 Sur 17 Sudoeste 0 -- -- 97
2019-04-09 07:00:00 8.2 6 Sudoeste 15 Sudoeste 0 -- -- 97
2019-04-09 06:00:00 8.1 5 Sudoeste 13 Sudoeste 0 -- -- 96
2019-04-09 05:00:00 8 4 Sudoeste 13 Sudoeste 0 -- -- 95
2019-04-09 04:00:00 7.9 4 Sudoeste 9 Oeste 0 -- -- 94
2019-04-09 03:00:00 8.1 4 Sur 9 Sur 0 -- -- 92
2019-04-09 02:00:00 8.7 4 Sur 8 Sudoeste 0 -- -- 89
2019-04-09 01:00:00 9.4 5 Sur 13 Sudoeste 0 -- -- 86
2019-04-09 00:00:00 10.5 9 Sudoeste 14 Oeste 0 -- -- 83
2019-04-08 23:00:00 11.1 5 Oeste 9 Sudoeste 0 -- -- 87
2019-04-08 22:00:00 12 4 Noroeste 11 Noroeste 0 -- -- 85
2019-04-08 21:00:00 12.7 4 Noroeste 24 Noroeste 0 -- -- 78
2019-04-08 20:00:00 13 13 Noroeste 37 Oeste 0 -- -- 75
2019-04-08 19:00:00 13 28 Noroeste 61 Oeste 0 -- -- 75
2019-04-08 18:00:00 17.6 14 Oeste 31 Oeste 0 -- -- 53
2019-04-08 17:00:00 18 18 Oeste 35 Noroeste 0 -- -- 55
2019-04-08 16:00:00 19 15 Oeste 27 Oeste 0 -- -- 42
2019-04-08 15:00:00 19.4 14 Oeste 30 Oeste 0 -- -- 43
2019-04-08 14:00:00 17.3 13 Oeste 31 Sudoeste 0 -- -- 48
2019-04-08 13:00:00 17.3 12 Oeste 23 Oeste 0 -- -- 49
2019-04-08 12:00:00 15.7 15 Oeste 23 Oeste 0 -- -- 63
2019-04-08 11:00:00 14.5 10 Oeste 21 Oeste 0 -- -- 77
2019-04-08 10:00:00 13.1 8 Sudoeste 14 Oeste 0 -- -- 93
2019-04-08 09:00:00 11.7 6 Sudoeste 16 Sudoeste 0 -- -- 97
2019-04-08 08:00:00 11.6 6 Sudoeste 12 Sudoeste 0 -- -- 97
2019-04-08 07:00:00 11.9 5 Oeste 17 Sudoeste 0 -- -- 95
2019-04-08 06:00:00 12.4 13 Oeste 27 Sur 0.2 -- -- 95
2019-04-08 05:00:00 12.5 13 Sur 28 Sudoeste 0.8 -- -- 97
2019-04-08 04:00:00 12.6 20 Sur 37 Sudoeste 1.2 -- -- 96
2019-04-08 03:00:00 12.7 10 Sudoeste 24 Sudoeste 0 -- -- 94
2019-04-08 02:00:00 12.7 8 Sudoeste 23 Sudoeste 0 -- -- 93
2019-04-08 01:00:00 13 11 Sudoeste 23 Sudoeste 0 -- -- 91
2019-04-08 00:00:00 13.3 11 Sudoeste 28 Oeste 0 -- -- 91
2019-04-07 23:00:00 13.6 8 Sudoeste 16 Sur 0 -- -- 93
2019-04-07 22:00:00 13.6 5 Sudoeste 14 Sudoeste 0 -- -- 95
2019-04-07 21:00:00 13.9 6 Sudoeste 13 Sudoeste 0 -- -- 94
2019-04-07 20:00:00 14.1 6 Sudoeste 20 Sudoeste 0 -- -- 93
2019-04-07 19:00:00 13.8 12 Sudoeste 28 Sur 0.8 -- -- 94
2019-04-07 18:00:00 14.5 11 Sudoeste 26 Sur 0 -- -- 86
2019-04-07 17:00:00 14.5 14 Sur 29 Sur 0.2 -- -- 81
2019-04-07 16:00:00 14.2 16 Sur 29 Sur 0 -- -- 80
2019-04-07 15:00:00 13.8 13 Sudoeste 25 Sudoeste 0 -- -- 80
2019-04-07 14:00:00 13.2 14 Sudoeste 27 Sudoeste 0 -- -- 82
2019-04-07 13:00:00 12.8 14 Sudoeste 25 Sudoeste 0 -- -- 85
2019-04-07 12:00:00 13.1 11 Sudoeste 22 Sur 0 -- -- 81
2019-04-07 11:00:00 11.9 11 Sudoeste 19 Sudoeste 0 -- -- 85
2019-04-07 10:00:00 10.4 10 Sudoeste 17 Sudoeste 0 -- -- 91
2019-04-07 09:00:00 9.1 6 Sudoeste 14 Sudoeste 0 -- -- 95
2019-04-07 08:00:00 8.8 7 Sudoeste 17 Sudoeste 0 -- -- 95
2019-04-07 07:00:00 8.5 6 Sudoeste 14 Oeste 0 -- -- 96
2019-04-07 06:00:00 8.4 6 Sudoeste 17 Sudoeste 0 -- -- 95
2019-04-07 05:00:00 8.7 8 Sudoeste 22 Sudoeste 0 -- -- 95
2019-04-07 04:00:00 9 7 Sudoeste 17 Sudoeste 2.4 -- -- 95
2019-04-07 03:00:00 9.1 8 Oeste 23 Sudoeste 1.8 -- -- 95
2019-04-07 02:00:00 9.2 10 Sudoeste 25 Oeste 0.2 -- -- 93
2019-04-07 01:00:00 9.5 12 Sudoeste 26 Sudoeste 0.2 -- -- 88
2019-04-07 00:00:00 9.5 9 Oeste 17 Oeste 0 -- -- 87
2019-04-06 23:00:00 9.3 5 Oeste 14 Sudoeste 0 -- -- 85
2019-04-06 22:00:00 9.8 8 Oeste 28 Oeste 0 -- -- 81
2019-04-06 21:00:00 10.8 20 Oeste 37 Oeste 0 -- -- 77
2019-04-06 20:00:00 12 15 Noroeste 27 Noroeste 0.2 -- -- 73
2019-04-06 19:00:00 12 16 Oeste 40 Oeste 0.8 -- -- 73
2019-04-06 18:00:00 13.9 19 Oeste 48 Noroeste 0.2 -- -- 62
2019-04-06 17:00:00 14.6 18 Oeste 36 Oeste 0 -- -- 57
2019-04-06 16:00:00 14.2 16 Oeste 32 Oeste 0 -- -- 62
2019-04-06 15:00:00 10 26 Noroeste 59 Oeste 0.4 -- -- 81
2019-04-06 14:00:00 14.3 19 Oeste 42 Oeste 0.2 -- -- 56
2019-04-06 13:00:00 14.4 18 Oeste 38 Oeste 0 -- -- 61
2019-04-06 12:00:00 12.5 19 Oeste 37 Oeste 0 -- -- 68
2019-04-06 11:00:00 10.2 15 Sudoeste 35 Sudoeste 0 -- -- 86
2019-04-06 10:00:00 9 17 Sudoeste 30 Sudoeste 0 -- -- 89
2019-04-06 09:00:00 7.7 10 Sudoeste 27 Sudoeste 0 -- -- 95
2019-04-06 08:00:00 7.2 11 Sudoeste 23 Sudoeste 0 -- -- 95
2019-04-06 07:00:00 7.2 11 Sudoeste 21 Sudoeste 0 -- -- 94
2019-04-06 06:00:00 7.3 8 Sudoeste 17 Sudoeste 0 -- -- 96
2019-04-06 05:00:00 7.4 10 Sudoeste 21 Sudoeste 0 -- -- 94
2019-04-06 04:00:00 7.3 10 Sudoeste 22 Sudoeste 0.2 -- -- 95
2019-04-06 03:00:00 7.4 12 Sudoeste 24 Sudoeste 0 -- -- 94
2019-04-06 02:00:00 7.2 10 Sudoeste 20 Sudoeste 0 -- -- 95
2019-04-06 01:00:00 7.2 4 Sur 18 Sudoeste 0.2 -- -- 93
2019-04-06 00:00:00 7.8 8 Sur 15 Sudoeste 0 -- -- 93
2019-04-05 23:00:00 7.6 7 Sudoeste 28 Oeste 1.4 -- -- 92
2019-04-05 22:00:00 8.2 9 Oeste 30 Oeste 1.4 -- -- 88
2019-04-05 21:00:00 9.7 11 Oeste 32 Oeste 0 -- -- 78
2019-04-05 20:00:00 10.7 14 Oeste 29 Oeste 0 -- -- 70
2019-04-05 19:00:00 11.1 12 Oeste 48 Noroeste 0 -- -- 68
2019-04-05 18:00:00 13 24 Oeste 50 Oeste 0 -- -- 59
2019-04-05 17:00:00 13.7 14 Sudoeste 41 Oeste 0 -- -- 54
2019-04-05 16:00:00 13.3 18 Sudoeste 43 Sudoeste 0 -- -- 55
2019-04-05 15:00:00 13.3 6 Oeste 23 Noroeste 0 -- -- 61
2019-04-05 14:00:00 11.3 16 Oeste 30 Oeste 0.2 -- -- 64
2019-04-05 13:00:00 10.5 12 Oeste 25 Oeste 0 -- -- 74
2019-04-05 12:00:00 8.6 9 Sudoeste 21 Sudoeste 0 -- -- 83
2019-04-05 11:00:00 7.1 11 Sudoeste 18 Sudoeste 0 -- -- 88
2019-04-05 10:00:00 5.6 14 Noroeste 55 Noroeste 0.6 -- -- 92
2019-04-05 09:00:00 7.8 17 Oeste 36 Oeste 0.6 -- -- 91
2019-04-05 08:00:00 8 6 Sudoeste 14 Sudoeste 0 -- -- 95
2019-04-05 07:00:00 8.6 5 Sudoeste 27 Sudoeste 0.4 -- -- 94
2019-04-05 06:00:00 9 11 Sudoeste 19 Sudoeste 0 -- -- 93
2019-04-05 05:00:00 8.8 10 Sudoeste 22 Sur 0 -- -- 93
2019-04-05 04:00:00 9 10 Sudoeste 33 Sur 0.6 -- -- 94
2019-04-05 03:00:00 8.6 9 Sudoeste 26 Sudoeste 3 -- -- 96
2019-04-05 02:00:00 8.8 10 Sur 24 Sur 1 -- -- 93
2019-04-05 01:00:00 9.1 13 Sur 21 Sur 0 -- -- 87
2019-04-05 00:00:00 9.2 6 Sur 16 Sudoeste 0.2 -- -- 88
2019-04-04 23:00:00 9.5 11 Oeste 35 Noroeste 0.2 -- -- 84
2019-04-04 22:00:00 12.3 24 Noroeste 44 Oeste 0 -- -- 62
2019-04-04 21:00:00 13.8 13 Oeste 34 Oeste 0 -- -- 49
2019-04-04 20:00:00 14.8 15 Oeste 32 Oeste 0 -- -- 44
2019-04-04 19:00:00 16.9 18 Oeste 32 Oeste 0 -- -- 37
2019-04-04 18:00:00 18.1 18 Oeste 31 Oeste 0 -- -- 33
2019-04-04 17:00:00 18.6 15 Noroeste 33 Oeste 0 -- -- 30
2019-04-04 16:00:00 18.6 12 Oeste 28 Oeste 0 -- -- 29
2019-04-04 15:00:00 17.6 9 Sudoeste 21 Sudoeste 0 -- -- 30
2019-04-04 14:00:00 18.1 7 Norte 30 Noroeste 0 -- -- 30
2019-04-04 13:00:00 16.7 9 Norte 21 Norte 0 -- -- 36
2019-04-04 12:00:00 14.8 11 Norte 23 Norte 0 -- -- 37
2019-04-04 11:00:00 12.5 9 Norte 21 Norte 0 -- -- 44
2019-04-04 10:00:00 8.5 6 Norte 16 Norte 0 -- -- 61
2019-04-04 09:00:00 2.1 6 Noroeste 12 Noroeste 0 -- -- 89
2019-04-04 08:00:00 1.5 6 Noroeste 12 Noroeste 0 -- -- 81
2019-04-04 07:00:00 2.7 5 Noroeste 12 Noroeste 0 -- -- 77
2019-04-04 06:00:00 3.4 5 Noroeste 9 Norte 0 -- -- 73
2019-04-04 05:00:00 4.8 4 Noroeste 14 Norte 0 -- -- 71
2019-04-04 04:00:00 5.3 3 Oeste 9 Noroeste 0 -- -- 81
2019-04-04 03:00:00 4.4 5 Noroeste 9 Noroeste 0 -- -- 85
2019-04-04 02:00:00 6 4 Noroeste 12 Noroeste 0 -- -- 78
2019-04-04 01:00:00 8.7 9 Noroeste 26 Noroeste 0 -- -- 69
2019-04-04 00:00:00 10.2 15 Noroeste 32 Noroeste 0 -- -- 64
2019-04-03 23:00:00 11.6 19 Noroeste 40 Noroeste 0 -- -- 58
2019-04-03 22:00:00 12.8 19 Noroeste 34 Noroeste 0 -- -- 54
2019-04-03 21:00:00 14.6 22 Noroeste 32 Oeste 0 -- -- 47
2019-04-03 20:00:00 17.4 21 Noroeste 33 Noroeste 0 -- -- 38
2019-04-03 19:00:00 19.4 16 Noroeste 30 Oeste 0 -- -- 36
2019-04-03 18:00:00 20.6 15 Noroeste 28 Noroeste 0 -- -- 34
2019-04-03 17:00:00 20.2 11 Oeste 26 Noroeste 0 -- -- 39
2019-04-03 16:00:00 20.4 14 Oeste 27 Noroeste 0 -- -- 42
2019-04-03 15:00:00 19.3 13 Oeste 29 Oeste 0 -- -- 45
2019-04-03 14:00:00 18.5 12 Oeste 26 Oeste 0 -- -- 50
2019-04-03 13:00:00 17.5 10 Noroeste 22 Noroeste 0 -- -- 50
2019-04-03 12:00:00 14.9 11 Noroeste 21 Noroeste 0 -- -- 58
2019-04-03 11:00:00 13 10 Noroeste 21 Oeste 0 -- -- 70
2019-04-03 10:00:00 9.4 8 Noroeste 16 Noroeste 0 -- -- 86
2019-04-03 09:00:00 6.8 4 Sudoeste 9 Sudoeste 0 -- -- 92
2019-04-03 08:00:00 6.9 4 Sudoeste 9 Oeste 0 -- -- 92
2019-04-03 07:00:00 7.7 4 Sudoeste 12 Sudoeste 0 -- -- 90
2019-04-03 06:00:00 8.4 4 Sur 12 Sudoeste 0 -- -- 90
2019-04-03 05:00:00 9.4 4 Sudoeste 13 Noroeste 0 -- -- 87
2019-04-03 04:00:00 10.3 8 Oeste 17 Oeste 0 -- -- 83
2019-04-03 03:00:00 11.3 8 Oeste 17 Oeste -- -- -- 80
2019-04-03 02:00:00 11.8 6 Oeste 18 Oeste 0 -- -- 81
2019-04-03 01:00:00 12.5 7 Noroeste 15 Noroeste 0 -- -- 81
2019-04-03 00:00:00 13.2 10 Noroeste 15 Oeste 0 -- -- 79
2019-04-02 23:00:00 12.3 5 Oeste 10 Oeste 0 -- -- 78
2019-04-02 22:00:00 15.8 4 Oeste 13 Oeste 0 -- -- 64
2019-04-02 21:00:00 18 10 Noroeste 22 Oeste 0 -- -- 55
2019-04-02 20:00:00 20.4 12 Oeste 24 Oeste 0 -- -- 43
2019-04-02 19:00:00 22.5 14 Oeste 24 Oeste 0 -- -- 35
2019-04-02 18:00:00 22.9 12 Oeste 27 Noroeste 0 -- -- 38
2019-04-02 17:00:00 22.2 10 Noroeste 25 Noroeste 0 -- -- 42
2019-04-02 16:00:00 23.1 9 Noroeste 22 Noroeste 0 -- -- 40
2019-04-02 15:00:00 22.1 9 Noroeste 23 Oeste 0 -- -- 43
2019-04-02 14:00:00 20.5 4 Sudoeste 14 Oeste 0 -- -- 53
2019-04-02 13:00:00 17.5 4 Sur 10 Sur 0 -- -- 71
2019-04-02 12:00:00 12.4 3 Sur 9 Sur 0 -- -- 93
2019-04-02 11:00:00 9.7 2 Sudoeste 6 Oeste 0 -- -- 100
2019-04-02 10:00:00 8.4 3 Oeste 6 Oeste 0 -- -- 100
2019-04-02 09:00:00 7.7 2 Sudoeste 5 Sur 0 -- -- 99
2019-04-02 08:00:00 7.8 3 Sudoeste 5 Sudoeste 0 -- -- 99
2019-04-02 07:00:00 8 0 Calma 5 Sur 0 -- -- 99
2019-04-02 06:00:00 8.4 0 Calma 8 Sudoeste 0 -- -- 98
2019-04-02 05:00:00 6.2 2 Oeste 5 Sudeste 0 -- -- 94
2019-04-02 04:00:00 7 0 Calma 4 Oeste 0 -- -- 94
2019-04-02 03:00:00 8 0 Calma 5 Sur 0 -- -- 89
2019-04-02 02:00:00 9.4 0 Calma 6 Norte 0 -- -- 93
2019-04-02 01:00:00 11 4 Sudoeste 10 Sudoeste 0 -- -- 85
2019-04-02 00:00:00 12.4 6 Oeste 12 Oeste 0 -- -- 89
2019-04-01 23:00:00 13.3 5 Sudoeste 10 Sudoeste 0 -- -- 85
2019-04-01 22:00:00 13.9 5 Sudoeste 14 Sudoeste 0 -- -- 81
2019-04-01 21:00:00 15.7 4 Sudoeste 13 Norte 0 -- -- 70
2019-04-01 20:00:00 18.2 8 Noroeste 19 Noroeste 0 -- -- 55
2019-04-01 19:00:00 18.8 4 Norte 16 Noroeste 0 -- -- 53
2019-04-01 18:00:00 16.6 9 Noroeste 30 Noroeste 0 -- -- 73
2019-04-01 17:00:00 16.5 19 Noroeste 41 Oeste 0 -- -- 63
2019-04-01 16:00:00 20.9 9 Este 31 Este 0 -- -- 47
2019-04-01 15:00:00 19.2 14 Este 31 Sudeste 0 -- -- 63
2019-04-01 14:00:00 19.9 5 Nordeste 14 Nordeste 0 -- -- 61
2019-04-01 13:00:00 18.7 7 Nordeste 14 Norte 0 -- -- 69
2019-04-01 12:00:00 17.3 4 Nordeste 12 Nordeste 0 -- -- 75
2019-04-01 11:00:00 15.7 4 Nordeste 10 Sudeste 0 -- -- 84
2019-04-01 10:00:00 12.6 5 Nordeste 9 Nordeste 0 -- -- 96
2019-04-01 09:00:00 -- 4 Nordeste 6 Nordeste 0 -- -- --
2019-04-01 08:00:00 -- 2 Nordeste 6 Nordeste 0.2 -- -- --
2019-04-01 07:00:00 -- 4 Nordeste 8 Nordeste 0 -- -- --
2019-04-01 06:00:00 -- 3 Nordeste 8 Nordeste 0.2 -- -- --
2019-04-01 05:00:00 -- 4 Norte 6 Norte 0.4 -- -- --
2019-04-01 04:00:00 -- 0 Calma 3 Sudoeste 0.2 -- -- --
2019-04-01 03:00:00 -- 0 Calma 5 Nordeste 0 -- -- --
2019-04-01 02:00:00 -- 3 Este 7 Sudeste 0 -- -- --
2019-04-01 01:00:00 -- 3 Este 6 Nordeste 0 -- -- --
2019-04-01 00:00:00 -- 2 Norte 5 Norte 0 -- -- --
2019-03-31 23:00:00 -- 4 Norte 10 Norte 0 -- -- --
2019-03-31 22:00:00 -- 5 Sur 28 Sudoeste 0.4 -- -- --
2019-03-31 21:00:00 -- 13 Sur 32 Sudoeste 0.2 -- -- --
2019-03-31 20:00:00 -- 21 Sudeste 40 Sudeste 0 -- -- --
2019-03-31 19:00:00 -- 9 Norte 20 Nordeste 0 -- -- --
2019-03-31 18:00:00 -- 10 Nordeste 25 Nordeste 0 -- -- --
2019-03-31 17:00:00 -- 11 Nordeste 21 Norte 0 -- -- --
2019-03-31 16:00:00 -- 5 Norte 15 Nordeste 0 -- -- --
2019-03-31 15:00:00 -- 6 Norte 16 Sur 0 -- -- --
2019-03-31 14:00:00 -- 5 Sur 10 Sur 0 -- -- --
2019-03-31 13:00:00 -- 4 Sudoeste 14 Sudoeste 0 -- -- --
2019-03-31 12:00:00 -- 7 Sudoeste 15 Sur 0 -- -- --
2019-03-31 11:00:00 -- 4 Sur 8 Sudoeste 0 -- -- --
2019-03-31 10:00:00 -- 0 Calma 3 Sudoeste 0 -- -- --
2019-03-31 09:00:00 -- 3 Sudoeste 4 Sudoeste 0 -- -- --
2019-03-31 08:00:00 -- 2 Norte 5 Norte 0 -- -- --
2019-03-31 07:00:00 -- 0 Calma 5 Noroeste 0 -- -- --
2019-03-31 06:00:00 -- 4 Noroeste 7 Norte 0 -- -- --
2019-03-31 05:00:00 -- 0 Calma 4 Sudeste 0 -- -- --
2019-03-31 03:00:00 -- 3 Oeste 8 Noroeste 0 -- -- --
2019-03-31 01:00:00 -- 3 Norte 8 Norte 0 -- -- --
2019-03-31 00:00:00 -- 3 Sur 13 Sudoeste 0 -- -- --
2019-03-30 23:00:00 -- 5 Sur 33 Sudeste 0 -- -- --
2019-03-30 22:00:00 -- 10 Sudeste 24 Este 0 -- -- --
2019-03-30 21:00:00 -- 5 Nordeste 11 Nordeste 0 -- -- --
2019-03-30 20:00:00 -- 7 Nordeste 15 Este 0 -- -- --
2019-03-30 19:00:00 -- 9 Nordeste 23 Nordeste 0 -- -- --
2019-03-30 18:00:00 -- 10 Nordeste 24 Nordeste 0 -- -- --
2019-03-30 17:00:00 -- 10 Nordeste 26 Sudeste 0 -- -- --
2019-03-30 16:00:00 -- 12 Nordeste 30 Sudeste 0 -- -- --
2019-03-30 15:00:00 -- 13 Este 28 Nordeste 0 -- -- --
2019-03-30 14:00:00 -- 11 Este 26 Este 0 -- -- --
2019-03-30 13:00:00 -- 13 Este 31 Sudeste 0 -- -- --
2019-03-30 12:00:00 -- 11 Nordeste 22 Este 0 -- -- --
2019-03-30 11:00:00 -- 8 Nordeste 24 Este 0 -- -- --
2019-03-30 10:00:00 -- 11 Este 24 Este 0 -- -- --
2019-03-30 09:00:00 -- 8 Este 15 Nordeste 0 -- -- --
2019-03-30 08:00:00 -- 4 Nordeste 8 Nordeste 0 -- -- --
2019-03-30 07:00:00 -- 3 Norte 10 Este 0 -- -- --
2019-03-30 06:00:00 -- 5 Este 12 Nordeste 0 -- -- --
2019-03-30 05:00:00 -- 3 Este 12 Este 0 -- -- --
2019-03-30 04:00:00 -- 0 Calma 4 Noroeste 0 -- -- --
2019-03-30 03:00:00 -- 3 Sudeste 5 Sudeste 0 -- -- --
2019-03-30 02:00:00 -- 0 Calma 10 Sur 0 -- -- --
2019-03-30 01:00:00 -- 4 Sur 10 Sur 0 -- -- --
2019-03-30 00:00:00 -- 2 Norte 8 Noroeste 0 -- -- --
2019-03-29 23:00:00 -- 5 Noroeste 7 Noroeste 0 -- -- --
2019-03-29 22:00:00 -- 6 Norte 12 Norte 0 -- -- --
2019-03-29 21:00:00 -- 6 Norte 12 Norte 0 -- -- --
2019-03-29 20:00:00 -- 12 Norte 14 Nordeste 0 -- -- --
2019-03-29 19:00:00 -- 12 Norte 21 Norte 0 -- -- --
2019-03-29 18:00:00 -- 9 Nordeste 23 Nordeste 0 -- -- --
2019-03-29 17:00:00 -- 10 Nordeste 22 Nordeste 0 -- -- --
2019-03-29 16:00:00 -- 7 Nordeste 22 Nordeste 0 -- -- --
2019-03-29 15:00:00 -- 11 Nordeste 26 Este 0 -- -- --
2019-03-29 14:00:00 -- 10 Nordeste 23 Nordeste 0 -- -- --
2019-03-29 13:00:00 -- 10 Este 25 Este 0 -- -- --
2019-03-29 12:00:00 -- 14 Sudeste 27 Este 0 -- -- --
2019-03-29 11:00:00 -- 10 Este 21 Nordeste 0 -- -- --
2019-03-29 10:00:00 -- 8 Este 17 Este 0 -- -- --
2019-03-29 09:00:00 -- 5 Nordeste 14 Este 0 -- -- --
2019-03-29 08:00:00 -- 4 Nordeste 11 Este 0 -- -- --
2019-03-29 07:00:00 -- 6 Nordeste 10 Nordeste 0 -- -- --
2019-03-29 06:00:00 -- 2 Nordeste 11 Nordeste 0 -- -- --
2019-03-29 05:00:00 -- 5 Nordeste 9 Nordeste 0 -- -- --
2019-03-29 04:00:00 -- 0 Calma 5 Sudoeste 0 -- -- --
2019-03-29 03:00:00 -- 0 Calma 6 Sur 0 -- -- --
2019-03-29 02:00:00 -- 2 Sur 5 Sur 0 -- -- --
2019-03-29 01:00:00 -- 3 Noroeste 4 Noroeste 0 -- -- --
2019-03-29 00:00:00 -- 2 Sudeste 6 Norte 0 -- -- --
2019-03-28 23:00:00 -- 5 Norte 6 Norte 0 -- -- --
2019-03-28 22:00:00 -- 2 Sur 13 Sur 0 -- -- --
2019-03-28 21:00:00 -- 5 Este 13 Este 0 -- -- --
2019-03-28 20:00:00 -- 7 Nordeste 24 Nordeste 0 -- -- --
2019-03-28 19:00:00 -- 12 Nordeste 29 Este 0 -- -- --
2019-03-28 18:00:00 -- 12 Este 28 Este 0 -- -- --
2019-03-28 17:00:00 -- 16 Nordeste 34 Nordeste 0 -- -- --
2019-03-28 16:00:00 -- 15 Nordeste 32 Nordeste 0 -- -- --
2019-03-28 15:00:00 -- 13 Este 35 Este 0 -- -- --
2019-03-28 14:00:00 -- 11 Este 35 Este 0 -- -- --
2019-03-28 13:00:00 -- 8 Este 22 Nordeste 0 -- -- --
2019-03-28 12:00:00 -- 8 Nordeste 23 Este 0 -- -- --
2019-03-28 11:00:00 -- 8 Nordeste 15 Este 0 -- -- --
2019-03-28 10:00:00 -- 5 Nordeste 10 Nordeste 0 -- -- --
2019-03-28 09:00:00 -- 5 Nordeste 8 Norte 0 -- -- --
2019-03-28 08:00:00 -- 4 Nordeste 6 Nordeste 0 -- -- --
2019-03-28 07:00:00 -- 3 Nordeste 8 Nordeste 0 -- -- --
2019-03-28 06:00:00 -- 4 Norte 6 Noroeste 0 -- -- --
2019-03-28 05:00:00 -- 0 Calma 4 Sudeste 0 -- -- --
2019-03-28 04:00:00 -- 2 Este 5 Este 0 -- -- --
2019-03-28 03:00:00 -- 0 Calma 8 Sudoeste 0 -- -- --
2019-03-28 02:00:00 -- 0 Calma 9 Sudoeste 0 -- -- --
2019-03-28 01:00:00 -- 8 Sur 17 Sur 0 -- -- --
2019-03-28 00:00:00 -- 2 Este 9 Nordeste 0 -- -- --
2019-03-27 23:00:00 -- 5 Nordeste 8 Nordeste 0 -- -- --
2019-03-27 22:00:00 -- 4 Este 13 Norte 0 -- -- --
2019-03-27 21:00:00 -- 4 Nordeste 13 Norte 0 -- -- --
2019-03-27 20:00:00 -- 7 Nordeste 27 Este 0 -- -- --
2019-03-27 19:00:00 -- 12 Nordeste 33 Este 0 -- -- --
2019-03-27 18:00:00 -- 11 Nordeste 29 Nordeste 0 -- -- --
2019-03-27 17:00:00 -- 12 Nordeste 35 Este 0 -- -- --
2019-03-27 16:00:00 -- 17 Este 36 Este 0 -- -- --
2019-03-27 15:00:00 -- 21 Este 51 Nordeste 0 -- -- --
2019-03-27 14:00:00 -- 15 Este 38 Nordeste 0 -- -- --
2019-03-27 13:00:00 -- 20 Nordeste 37 Nordeste 0 -- -- --
2019-03-27 12:00:00 -- 13 Este 34 Este 0 -- -- --
2019-03-27 11:00:00 -- 14 Nordeste 32 Este 0 -- -- --
2019-03-27 10:00:00 -- 12 Nordeste 36 Este 0 -- -- --
2019-03-27 09:00:00 -- 15 Nordeste 32 Este 0 -- -- --
2019-03-27 08:00:00 -- 8 Nordeste 21 Este 0 -- -- --
2019-03-27 07:00:00 -- 8 Este 26 Este 0 -- -- --
2019-03-27 06:00:00 -- 15 Este 35 Este 0 -- -- --
2019-03-27 05:00:00 -- 13 Este 27 Este 0 -- -- --
2019-03-27 04:00:00 -- 10 Este 26 Este 0 -- -- --
2019-03-27 03:00:00 -- 12 Este 33 Este 0 -- -- --
2019-03-27 02:00:00 -- 15 Este 30 Este 0 -- -- --
2019-03-27 01:00:00 -- 8 Nordeste 11 Nordeste 0 -- -- --
2019-03-27 00:00:00 -- 6 Nordeste 10 Nordeste 0 -- -- --
2019-03-26 23:00:00 -- 8 Nordeste 16 Este 0 -- -- --
2019-03-26 22:00:00 -- 9 Nordeste 19 Nordeste 0 -- -- --
2019-03-26 21:00:00 -- 15 Nordeste 21 Nordeste 0 -- -- --
2019-03-26 20:00:00 -- 13 Nordeste 28 Nordeste 0 -- -- --
2019-03-26 19:00:00 -- 10 Nordeste 33 Nordeste 0 -- -- --
2019-03-26 18:00:00 -- 14 Este 35 Este 0 -- -- --
2019-03-26 17:00:00 -- 17 Este 35 Nordeste 0 -- -- --
2019-03-26 16:00:00 -- 18 Este 37 Nordeste 0 -- -- --
2019-03-26 15:00:00 -- 15 Este 35 Este 0 -- -- --
2019-03-26 14:00:00 -- 18 Nordeste 38 Este 0 -- -- --
2019-03-26 13:00:00 -- 17 Nordeste 35 Este 0 -- -- --
2019-03-26 12:00:00 -- 19 Nordeste 39 Nordeste 0 -- -- --
2019-03-26 11:00:00 18.2 17 Nordeste 33 Nordeste 0 -- -- 31
2019-03-26 10:00:00 15.4 16 Nordeste 27 Nordeste 0 -- -- 39
2019-03-26 09:00:00 12.5 12 Nordeste 22 Norte 0 -- -- 47
2019-03-26 08:00:00 9.3 17 Norte 23 Norte 0 -- -- 53
2019-03-26 07:00:00 9.3 13 Nordeste 20 Nordeste 0 -- -- 54
2019-03-26 06:00:00 10.3 18 Nordeste 25 Nordeste 0 -- -- 56
2019-03-26 05:00:00 9 15 Nordeste 20 Norte 0 -- -- 62
2019-03-26 04:00:00 9.5 3 Nordeste 14 Nordeste 0 -- -- 61
2019-03-26 03:00:00 10 9 Nordeste 14 Nordeste 0 -- -- 58
2019-03-26 02:00:00 10.8 9 Nordeste 14 Nordeste 0 -- -- 56
2019-03-26 01:00:00 11.1 11 Nordeste 14 Nordeste 0 -- -- 56
2019-03-26 00:00:00 11.1 8 Nordeste 15 Norte 0 -- -- 59
2019-03-25 23:00:00 11.9 10 Nordeste 13 Nordeste 0 -- -- 56
2019-03-25 22:00:00 13.2 6 Nordeste 11 Nordeste 0 -- -- 51
2019-03-25 21:00:00 15.7 11 Nordeste 19 Nordeste 0 -- -- 41
2019-03-25 20:00:00 18 14 Nordeste 17 Nordeste 0 -- -- 38
2019-03-25 19:00:00 23.1 9 Nordeste 27 Nordeste 0 -- -- 28
2019-03-25 18:00:00 24.3 14 Nordeste 32 Sudeste 0 -- -- 26
2019-03-25 17:00:00 25.1 15 Este 41 Nordeste 0 -- -- 23
2019-03-25 16:00:00 25.2 14 Nordeste 34 Nordeste 0 -- -- 23
2019-03-25 15:00:00 24.8 18 Este 32 Nordeste 0 -- -- 22
2019-03-25 14:00:00 24 16 Este 42 Este 0 -- -- 24
2019-03-25 13:00:00 22.7 17 Este 38 Este 0 -- -- 29
2019-03-25 12:00:00 20.8 15 Este 30 Nordeste 0 -- -- 36
2019-03-25 11:00:00 17.5 10 Nordeste 23 Nordeste 0 -- -- 50
2019-03-25 10:00:00 14.6 7 Nordeste 14 Nordeste 0 -- -- 62
2019-03-25 09:00:00 8.8 3 Norte 6 Norte 0 -- -- 89
2019-03-25 08:00:00 4.9 4 Norte 10 Norte 0 -- -- 91
2019-03-25 07:00:00 5.4 8 Nordeste 11 Nordeste 0 -- -- 93
2019-03-25 06:00:00 4.6 5 Nordeste 8 Norte 0 -- -- 90
2019-03-25 05:00:00 5.3 0 Calma 4 Sur 0 -- -- 85
2019-03-25 04:00:00 5.6 0 Calma 8 Noroeste 0 -- -- 88
2019-03-25 03:00:00 6.3 0 Calma 3 Sudeste 0 -- -- 83
2019-03-25 02:00:00 7.1 0 Calma 3 Sudoeste 0 -- -- 84
2019-03-25 01:00:00 8.7 2 Sur 5 Nordeste 0 -- -- 78
2019-03-25 00:00:00 9.8 3 Norte 6 Sur 0 -- -- 74